Time;durP1;ratioP1;P1;durP2;ratioP2;P2;SDS_P1;SDS_P2;PMS_P1;PMS_P2;Temp;Humidity;BMP_temperature;BMP_pressure;BME280_temperature;BME280_humidity;BME280_pressure;Samples;Min_cycle;Max_cycle;Signal;HPM_P1;HPM_P2
2023/08/16 00:01:25;;;;;;;7.40;6.70;;;;;;;22.33;80.07;101161.84;5027383;28;20211;-73
2023/08/16 00:03:52;;;;;;;8.40;7.47;;;;;;;22.33;79.02;101159.16;5033164;28;20203;-72
2023/08/16 00:06:18;;;;;;;8.35;7.32;;;;;;;22.34;79.57;101159.91;5032528;28;20210;-72
2023/08/16 00:08:44;;;;;;;8.10;7.30;;;;;;;22.34;79.19;101159.91;5028023;28;20680;-72
2023/08/16 00:11:11;;;;;;;8.10;7.30;;;;;;;22.34;79.80;101160.69;5028875;28;21274;-72
2023/08/16 00:13:38;;;;;;;7.95;7.15;;;;;;;22.34;79.70;101158.00;5033635;28;20405;-72
2023/08/16 00:16:05;;;;;;;7.95;7.07;;;;;;;22.34;80.46;101155.31;5029326;28;20215;-72
2023/08/16 00:18:31;;;;;;;8.43;7.28;;;;;;;22.33;80.69;101155.69;5033374;28;20203;-72
2023/08/16 00:20:59;;;;;;;9.43;8.10;;;;;;;22.33;79.84;101148.41;5028153;28;20227;-72
2023/08/16 00:23:25;;;;;;;10.20;8.13;;;;;;;22.34;81.05;101154.53;5029560;28;20592;-73
2023/08/16 00:25:52;;;;;;;9.15;8.13;;;;;;;22.33;80.05;101158.38;5028379;28;21107;-72
2023/08/16 00:28:18;;;;;;;7.75;6.88;;;;;;;22.32;80.54;101165.69;5030979;28;20203;-72
2023/08/16 00:30:46;;;;;;;7.82;6.57;;;;;;;22.33;80.64;101155.69;5047042;28;20231;-72
2023/08/16 00:33:13;;;;;;;7.88;6.82;;;;;;;22.32;81.24;101154.16;5029879;28;20207;-72
2023/08/16 00:35:39;;;;;;;7.22;6.53;;;;;;;22.29;81.30;101153.00;5027218;28;20203;-73
2023/08/16 00:38:05;;;;;;;8.30;7.30;;;;;;;22.29;81.35;101171.84;5029488;28;20595;-73
2023/08/16 00:40:32;;;;;;;7.78;6.88;;;;;;;22.30;81.01;101170.69;5030826;28;20227;-72
2023/08/16 00:42:58;;;;;;;11.10;7.28;;;;;;;22.30;81.06;101175.31;5031707;28;20211;-72
2023/08/16 00:45:24;;;;;;;9.93;7.15;;;;;;;22.29;80.76;101174.53;5029371;28;20243;-73
2023/08/16 00:47:52;;;;;;;9.73;7.47;;;;;;;22.28;81.38;101167.63;5030042;28;20227;-72
2023/08/16 00:50:21;;;;;;;7.70;7.00;;;;;;;22.26;80.98;101164.56;5034059;28;20593;-72
2023/08/16 00:52:48;;;;;;;7.93;7.00;;;;;;;22.26;80.35;101169.19;5030616;28;20359;-72
2023/08/16 00:55:16;;;;;;;7.73;6.70;;;;;;;22.26;80.73;101166.47;5026277;28;20208;-73
2023/08/16 00:57:42;;;;;;;7.97;7.07;;;;;;;22.24;80.46;101177.63;5030528;28;20204;-72
2023/08/16 01:00:10;;;;;;;6.93;6.23;;;;;;;22.22;80.23;101173.78;5025804;28;20219;-72
2023/08/16 01:02:36;;;;;;;7.45;6.68;;;;;;;22.19;80.99;101180.72;5027810;28;20268;-72
2023/08/16 01:05:06;;;;;;;7.15;6.45;;;;;;;22.18;80.72;101178.41;5028992;28;20255;-72
2023/08/16 01:07:33;;;;;;;8.40;7.00;;;;;;;22.15;80.25;101184.59;5033175;28;20658;-72
2023/08/16 01:09:59;;;;;;;9.13;7.13;;;;;;;22.13;80.28;101186.88;5047911;28;20241;-72
2023/08/16 01:12:32;;;;;;;7.45;6.65;;;;;;;22.08;80.42;101182.69;5030546;28;20211;-72
2023/08/16 01:15:08;;;;;;;11.73;6.97;;;;;;;22.06;81.13;101201.13;5044755;28;20207;-72
2023/08/16 01:17:34;;;;;;;8.17;6.60;;;;;;;22.02;81.40;101196.91;5031033;28;20206;-73
2023/08/16 01:20:04;;;;;;;7.40;6.70;;;;;;;21.99;81.78;101195.00;5030348;28;20235;-72
2023/08/16 01:22:43;;;;;;;7.30;6.60;;;;;;;21.95;82.05;101195.00;5033879;28;20238;-73
2023/08/16 01:25:21;;;;;;;8.27;6.60;;;;;;;21.92;81.26;101186.91;5031071;28;20313;-72
2023/08/16 01:27:51;;;;;;;9.50;7.43;;;;;;;21.90;82.65;101194.63;5029694;28;20226;-73
2023/08/16 01:30:20;;;;;;;8.40;7.30;;;;;;;21.88;82.32;101199.63;5027028;28;20604;-72
2023/08/16 01:32:47;;;;;;;7.50;6.60;;;;;;;21.85;82.21;101198.47;5026110;28;20303;-73
2023/08/16 01:35:13;;;;;;;8.90;7.10;;;;;;;21.83;81.78;101191.94;5027765;28;20204;-72
2023/08/16 01:37:40;;;;;;;10.80;7.30;;;;;;;21.79;82.56;101197.31;5032131;28;20203;-72
2023/08/16 01:40:08;;;;;;;11.10;7.47;;;;;;;21.79;82.66;101194.63;5031397;28;20553;-72
2023/08/16 01:42:40;;;;;;;9.23;6.93;;;;;;;21.78;82.37;101203.84;5042962;28;20200;-72
2023/08/16 01:45:09;;;;;;;6.97;6.27;;;;;;;21.77;82.73;101198.84;5029703;28;20230;-72
2023/08/16 01:47:37;;;;;;;10.13;6.90;;;;;;;21.75;82.39;101191.19;5046923;28;20208;-72
2023/08/16 01:50:06;;;;;;;7.85;7.05;;;;;;;21.73;82.35;101196.16;5028041;28;20573;-73
2023/08/16 01:52:34;;;;;;;8.63;7.70;;;;;;;21.73;82.27;101195.41;5051290;28;20218;-73
2023/08/16 01:55:00;;;;;;;7.63;6.83;;;;;;;21.71;82.40;101192.31;5031514;28;20207;-72
2023/08/16 01:57:27;;;;;;;9.97;7.07;;;;;;;21.69;81.89;101194.66;5029538;28;20223;-72
2023/08/16 01:59:53;;;;;;;8.00;6.40;;;;;;;21.67;81.73;101191.56;5034552;28;20219;-72
2023/08/16 02:02:21;;;;;;;8.33;7.23;;;;;;;21.62;81.60;101184.63;5033649;28;20211;-72
2023/08/16 02:04:48;;;;;;;8.17;6.83;;;;;;;21.59;82.00;101190.78;5032994;28;20223;-72
2023/08/16 02:07:14;;;;;;;7.63;6.77;;;;;;;21.56;81.56;101194.22;5034876;28;20199;-72
2023/08/16 02:09:40;;;;;;;8.03;7.23;;;;;;;21.52;81.50;101195.41;5032069;28;20604;-72
2023/08/16 02:12:08;;;;;;;9.70;6.90;;;;;;;21.48;81.18;101189.25;5026545;28;20218;-71
2023/08/16 02:14:34;;;;;;;8.20;6.37;;;;;;;21.44;81.15;101189.25;5025337;28;20203;-72
2023/08/16 02:17:01;;;;;;;9.03;7.07;;;;;;;21.41;81.18;101181.94;5037077;28;20574;-72
2023/08/16 02:19:28;;;;;;;9.20;6.83;;;;;;;21.38;81.10;101188.06;5033665;28;20239;-72
2023/08/16 02:21:55;;;;;;;7.43;6.73;;;;;;;21.34;81.36;101184.63;5035449;28;20217;-72
2023/08/16 02:24:21;;;;;;;7.63;6.03;;;;;;;21.30;81.49;101185.75;5032388;28;20203;-72
2023/08/16 02:26:47;;;;;;;10.80;6.20;;;;;;;21.28;81.50;101198.81;5032993;28;20226;-72
2023/08/16 02:29:14;;;;;;;6.83;6.13;;;;;;;21.23;81.21;101193.81;5030429;28;20695;-73
2023/08/16 02:31:40;;;;;;;7.20;5.80;;;;;;;21.20;81.45;101189.97;5032340;28;20636;-73
2023/08/16 02:34:06;;;;;;;7.93;7.00;;;;;;;21.18;81.24;101194.19;5032505;28;20218;-72
2023/08/16 02:36:34;;;;;;;7.50;6.80;;;;;;;21.15;81.19;101197.63;5034809;28;20674;-73
2023/08/16 02:39:01;;;;;;;9.37;6.70;;;;;;;21.14;81.53;101204.16;5037411;28;20238;-72
2023/08/16 02:41:27;;;;;;;6.53;5.87;;;;;;;21.10;81.77;101198.78;5032972;28;21098;-72
2023/08/16 02:43:54;;;;;;;7.17;6.47;;;;;;;21.07;81.42;101202.25;5029567;28;20695;-72
2023/08/16 02:46:20;;;;;;;8.37;6.40;;;;;;;21.06;81.75;101208.00;5033037;28;20226;-72
2023/08/16 02:48:47;;;;;;;7.70;6.93;;;;;;;21.04;82.76;101203.00;5033570;28;20246;-72
2023/08/16 02:51:13;;;;;;;7.10;6.40;;;;;;;21.01;82.18;101203.75;5032426;28;20227;-72
2023/08/16 02:53:41;;;;;;;7.60;6.70;;;;;;;20.99;82.68;101197.22;5034510;28;20210;-72
2023/08/16 02:56:07;;;;;;;7.03;6.33;;;;;;;20.96;83.38;101196.06;5032496;28;20330;-72
2023/08/16 02:58:34;;;;;;;6.97;6.27;;;;;;;20.96;82.57;101203.38;5037109;28;20196;-72
2023/08/16 03:01:00;;;;;;;6.97;6.17;;;;;;;20.94;82.69;101198.38;5033159;28;20231;-72
2023/08/16 03:03:27;;;;;;;6.67;6.00;;;;;;;20.92;82.15;101202.59;5047811;28;20214;-72
2023/08/16 03:05:53;;;;;;;6.53;5.93;;;;;;;20.90;82.17;101197.59;5033728;28;20306;-72
2023/08/16 03:08:19;;;;;;;6.73;5.77;;;;;;;20.89;82.12;101190.69;5032848;28;20214;-72
2023/08/16 03:10:47;;;;;;;8.57;5.90;;;;;;;20.89;82.13;101196.06;5031852;28;20215;-72
2023/08/16 03:13:14;;;;;;;6.83;6.13;;;;;;;20.87;82.04;101189.50;5030452;28;20295;-72
2023/08/16 03:15:40;;;;;;;7.07;6.37;;;;;;;20.85;82.04;101200.59;5033126;28;20247;-72
2023/08/16 03:18:06;;;;;;;7.10;6.40;;;;;;;20.84;81.98;101209.03;5031252;28;20211;-72
2023/08/16 03:20:33;;;;;;;7.83;5.70;;;;;;;20.82;81.90;101205.97;5033939;28;20231;-72
2023/08/16 03:23:00;;;;;;;7.00;6.30;;;;;;;20.81;82.02;101212.50;5034337;28;20290;-72
2023/08/16 03:25:26;;;;;;;8.80;6.37;;;;;;;20.79;81.71;101214.78;5029000;28;20215;-72
2023/08/16 03:27:54;;;;;;;7.10;6.27;;;;;;;20.77;82.14;101209.81;5030488;28;20733;-72
2023/08/16 03:30:21;;;;;;;8.57;6.57;;;;;;;20.76;81.89;101219.00;5032570;28;20318;-72
2023/08/16 03:32:48;;;;;;;6.80;6.10;;;;;;;20.73;81.65;101211.69;5031306;28;20199;-72
2023/08/16 03:35:14;;;;;;;8.73;5.93;;;;;;;20.72;81.83;101212.84;5047276;28;20287;-72
2023/08/16 03:37:41;;;;;;;6.60;6.00;;;;;;;20.70;82.12;101220.50;5036431;28;20321;-72
2023/08/16 03:40:09;;;;;;;10.07;6.97;;;;;;;20.67;81.77;101223.94;5032464;28;20289;-72
2023/08/16 03:42:37;;;;;;;7.20;6.00;;;;;;;20.65;81.51;101230.84;5027513;28;20257;-72
2023/08/16 03:45:06;;;;;;;8.70;6.40;;;;;;;20.62;82.19;101234.25;5031378;28;20728;-72
2023/08/16 03:47:33;;;;;;;7.60;6.10;;;;;;;20.60;82.02;101241.94;5030700;28;20211;-72
2023/08/16 03:49:59;;;;;;;6.60;5.63;;;;;;;20.56;82.20;101236.56;5037554;28;20232;-73
2023/08/16 03:52:26;;;;;;;6.67;5.77;;;;;;;20.54;82.74;101241.50;5031150;28;20288;-72
2023/08/16 03:54:53;;;;;;;7.73;5.87;;;;;;;20.52;82.79;101238.44;5033906;28;20218;-72
2023/08/16 03:57:20;;;;;;;7.37;6.07;;;;;;;20.49;82.99;101247.22;5029418;28;20207;-72
2023/08/16 03:59:46;;;;;;;10.17;6.33;;;;;;;20.48;82.50;101247.63;5028641;28;20815;-72
2023/08/16 04:02:14;;;;;;;7.33;5.60;;;;;;;20.47;83.23;101251.44;5028917;28;20585;-72
2023/08/16 04:04:40;;;;;;;6.13;5.53;;;;;;;20.44;83.39;101250.28;5032770;28;20218;-72
2023/08/16 04:07:07;;;;;;;6.20;5.60;;;;;;;20.44;84.30;101252.22;5029842;28;20226;-72
2023/08/16 04:09:34;;;;;;;8.83;6.20;;;;;;;20.44;83.87;101252.22;5031073;28;20744;-72
2023/08/16 04:12:00;;;;;;;7.30;6.37;;;;;;;20.42;83.72;101249.88;5032611;28;20600;-73
2023/08/16 04:14:27;;;;;;;7.50;6.63;;;;;;;20.44;84.18;101258.31;5044123;28;20230;-72
2023/08/16 04:16:56;;;;;;;6.77;6.07;;;;;;;20.43;84.26;101254.09;5029906;28;20218;-72
2023/08/16 04:19:24;;;;;;;7.73;6.37;;;;;;;20.44;83.87;101255.63;5021011;28;20231;-72
2023/08/16 04:21:50;;;;;;;8.47;6.70;;;;;;;20.47;84.17;101260.28;5033498;28;20202;-72
2023/08/16 04:24:19;;;;;;;7.43;5.57;;;;;;;20.49;84.08;101259.91;5029142;28;20195;-72
2023/08/16 04:26:45;;;;;;;6.90;6.30;;;;;;;20.53;84.98;101263.34;5045650;28;20622;-72
2023/08/16 04:29:12;;;;;;;7.80;7.00;;;;;;;20.56;85.13;101270.66;5028124;28;20218;-72
2023/08/16 04:31:39;;;;;;;7.67;6.77;;;;;;;20.61;85.07;101279.13;5028417;28;20243;-72
2023/08/16 04:34:06;;;;;;;8.93;6.80;;;;;;;20.66;85.20;101272.63;5027007;28;20767;-72
2023/08/16 04:36:33;;;;;;;7.43;6.53;;;;;;;20.71;85.65;101283.00;5029565;28;20215;-73
2023/08/16 04:39:00;;;;;;;9.47;7.00;;;;;;;20.76;85.49;101277.28;5029686;28;21080;-72
2023/08/16 04:41:27;;;;;;;8.33;6.47;;;;;;;20.81;85.37;101274.25;5029212;28;20234;-73
2023/08/16 04:43:54;;;;;;;10.20;6.33;;;;;;;20.87;85.32;101275.41;5049899;28;20649;-72
2023/08/16 04:46:20;;;;;;;7.73;6.17;;;;;;;20.92;85.84;101275.84;5027624;28;20220;-72
2023/08/16 04:48:46;;;;;;;8.00;6.47;;;;;;;20.98;85.76;101278.94;5047018;28;20207;-73
2023/08/16 04:51:13;;;;;;;9.50;6.27;;;;;;;21.05;85.25;101281.66;5025750;28;20762;-72
2023/08/16 04:53:41;;;;;;;6.30;5.63;;;;;;;21.09;85.68;101283.19;5029559;28;20228;-73
2023/08/16 04:56:08;;;;;;;6.63;6.03;;;;;;;21.15;85.17;101292.44;5031069;28;20237;-72
2023/08/16 04:58:34;;;;;;;6.10;5.50;;;;;;;21.21;85.59;101292.84;5026364;28;20211;-73
2023/08/16 05:01:01;;;;;;;7.20;6.23;;;;;;;21.27;84.97;101296.69;5027973;28;20234;-72
2023/08/16 05:03:30;;;;;;;5.80;5.23;;;;;;;21.33;84.58;101287.09;5026816;28;20203;-72
2023/08/16 05:05:59;;;;;;;6.10;5.50;;;;;;;21.38;85.12;101289.41;5028863;28;20227;-72
2023/08/16 05:08:25;;;;;;;7.40;6.20;;;;;;;21.43;84.23;101289.81;5028135;28;20200;-72
2023/08/16 05:10:53;;;;;;;7.50;6.03;;;;;;;21.49;84.37;101292.91;5027667;28;20246;-72
2023/08/16 05:13:21;;;;;;;10.53;6.40;;;;;;;21.55;83.74;101291.38;5029748;28;20235;-72
2023/08/16 05:15:48;;;;;;;6.13;5.53;;;;;;;21.61;84.00;101296.00;5030717;28;20200;-72
2023/08/16 05:18:14;;;;;;;9.10;6.57;;;;;;;21.67;83.71;101299.84;5042837;28;20867;-73
2023/08/16 05:20:42;;;;;;;6.50;5.70;;;;;;;21.74;83.63;101301.78;5050584;28;20614;-72
2023/08/16 05:23:09;;;;;;;8.75;5.38;;;;;;;21.81;83.11;101307.16;5037353;28;20211;-72
2023/08/16 05:25:36;;;;;;;7.78;6.22;;;;;;;21.89;82.98;101308.72;5035431;28;20195;-73
2023/08/16 05:28:04;;;;;;;6.50;5.87;;;;;;;21.94;82.83;101311.03;5034135;28;20219;-72
2023/08/16 05:30:31;;;;;;;8.05;5.90;;;;;;;22.00;82.39;101314.88;5031839;28;20227;-72
2023/08/16 05:32:57;;;;;;;7.70;6.00;;;;;;;22.06;82.33;101318.72;5031004;28;20215;-72
2023/08/16 05:35:24;;;;;;;6.53;5.93;;;;;;;22.10;82.32;101317.53;5035677;28;20500;-72
2023/08/16 05:37:51;;;;;;;7.25;6.40;;;;;;;22.15;81.93;101319.84;5039687;28;20207;-73
2023/08/16 05:40:17;;;;;;;6.68;5.90;;;;;;;22.20;82.02;101321.41;5037678;28;20268;-72
2023/08/16 05:42:44;;;;;;;8.02;6.55;;;;;;;22.22;81.58;101319.88;5033556;28;20207;-72
2023/08/16 05:45:12;;;;;;;8.35;6.88;;;;;;;22.24;81.18;101322.16;5035758;28;20199;-72
2023/08/16 05:47:38;;;;;;;9.05;7.70;;;;;;;22.25;81.04;101324.44;5033422;28;20223;-73
2023/08/16 05:50:05;;;;;;;9.77;7.85;;;;;;;22.26;81.29;101320.63;5037242;28;20250;-72
2023/08/16 05:52:32;;;;;;;8.35;7.15;;;;;;;22.26;81.48;101317.94;5031510;28;20208;-72
2023/08/16 05:54:58;;;;;;;9.93;7.50;;;;;;;22.31;81.22;101325.59;5036600;28;20250;-72
2023/08/16 05:57:24;;;;;;;9.50;7.50;;;;;;;22.32;81.18;101326.38;5035582;28;20206;-72
2023/08/16 05:59:51;;;;;;;11.68;8.00;;;;;;;22.35;81.08;101323.69;5036560;28;20215;-72
2023/08/16 06:02:23;;;;;;;9.82;7.15;;;;;;;22.39;81.44;101329.06;5032103;28;20211;-72
2023/08/16 06:04:49;;;;;;;10.60;7.85;;;;;;;22.42;81.26;101326.38;5034847;28;20697;-72
2023/08/16 06:07:16;;;;;;;9.82;7.10;;;;;;;22.43;80.84;101325.22;5032037;28;20600;-72
2023/08/16 06:09:43;;;;;;;10.40;7.45;;;;;;;22.45;80.67;101331.00;5035818;28;20227;-72
2023/08/16 06:12:09;;;;;;;12.85;10.15;;;;;;;22.46;81.08;101329.84;5035339;28;20207;-72
2023/08/16 06:14:36;;;;;;;11.85;8.15;;;;;;;22.49;81.07;101329.06;5037239;28;20203;-72
2023/08/16 06:17:02;;;;;;;9.95;8.00;;;;;;;22.52;80.82;101335.63;5039337;28;20208;-72
2023/08/16 06:19:30;;;;;;;9.07;7.72;;;;;;;22.55;81.09;101340.97;5031178;28;20227;-72
2023/08/16 06:21:56;;;;;;;9.70;8.38;;;;;;;22.58;80.79;101337.53;5035898;28;21079;-72
2023/08/16 06:24:22;;;;;;;11.88;8.45;;;;;;;22.61;80.18;101334.03;5035394;28;20203;-72
2023/08/16 06:26:49;;;;;;;9.45;7.47;;;;;;;22.64;80.51;101337.88;5033881;28;20227;-72
2023/08/16 06:29:15;;;;;;;10.90;8.25;;;;;;;22.68;80.32;101349.41;5035005;28;20210;-72
2023/08/16 06:31:41;;;;;;;11.00;9.65;;;;;;;22.70;80.67;101355.97;5035872;28;20211;-72
2023/08/16 06:34:07;;;;;;;12.05;9.70;;;;;;;22.72;80.15;101359.00;5034324;28;20570;-72
2023/08/16 06:36:35;;;;;;;13.65;10.30;;;;;;;22.78;80.04;101359.41;5025297;28;20493;-72
2023/08/16 06:39:02;;;;;;;18.63;10.73;;;;;;;22.80;80.04;101360.56;5026337;28;20250;-72
2023/08/16 06:41:28;;;;;;;14.25;10.07;;;;;;;22.84;80.06;101363.22;5025067;28;20307;-71
2023/08/16 06:43:54;;;;;;;22.70;17.05;;;;;;;22.89;79.61;101365.53;5035833;28;20712;-72
2023/08/16 06:46:21;;;;;;;15.18;11.38;;;;;;;22.93;79.55;101363.59;5035271;28;20307;-72
2023/08/16 06:48:47;;;;;;;19.23;14.75;;;;;;;22.96;79.36;101360.88;5032073;28;20195;-72
2023/08/16 06:51:14;;;;;;;13.07;10.98;;;;;;;22.99;78.99;101352.03;5033943;28;20235;-72
2023/08/16 06:53:44;;;;;;;17.67;11.93;;;;;;;23.03;78.91;101360.84;5029355;28;20203;-72
2023/08/16 06:56:10;;;;;;;19.45;10.95;;;;;;;23.07;78.91;101358.16;5032912;28;20226;-73
2023/08/16 06:58:36;;;;;;;18.15;12.60;;;;;;;23.11;78.89;101366.97;5028726;28;20287;-72
2023/08/16 07:01:03;;;;;;;18.70;11.95;;;;;;;23.14;78.85;101364.31;5033793;28;20243;-72
2023/08/16 07:03:29;;;;;;;11.27;9.90;;;;;;;23.17;78.89;101363.53;5033693;28;20203;-72
2023/08/16 07:05:56;;;;;;;12.32;9.95;;;;;;;23.21;78.69;101363.50;5034850;28;20222;-72
2023/08/16 07:08:22;;;;;;;11.05;9.80;;;;;;;23.25;78.71;101369.66;5034598;28;20208;-73
2023/08/16 07:10:50;;;;;;;10.90;9.80;;;;;;;23.31;78.80;101370.78;5033512;28;20707;-72
2023/08/16 07:13:16;;;;;;;13.63;9.18;;;;;;;23.37;78.75;101373.84;5034420;28;20210;-73
2023/08/16 07:15:42;;;;;;;10.02;8.90;;;;;;;23.42;78.86;101384.97;5036115;28;20208;-73
2023/08/16 07:18:09;;;;;;;11.20;9.95;;;;;;;23.47;78.41;101384.56;5032166;28;20200;-71
2023/08/16 07:20:35;;;;;;;12.55;9.23;;;;;;;23.48;78.06;101376.09;5033231;28;20429;-72
2023/08/16 07:23:02;;;;;;;11.82;9.30;;;;;;;23.52;77.50;101381.47;5036406;28;20208;-72
2023/08/16 07:25:29;;;;;;;12.90;9.10;;;;;;;23.54;77.07;101385.31;5034090;28;20741;-72
2023/08/16 07:27:56;;;;;;;11.68;9.15;;;;;;;23.57;76.84;101381.06;5035154;28;20717;-72
2023/08/16 07:30:23;;;;;;;9.85;8.82;;;;;;;23.59;76.67;101379.50;5036857;28;20226;-73
2023/08/16 07:32:49;;;;;;;10.82;8.75;;;;;;;23.61;76.19;101376.41;5037635;28;20200;-72
2023/08/16 07:35:16;;;;;;;11.93;8.82;;;;;;;23.60;76.32;101375.63;5034050;28;20215;-73
2023/08/16 07:37:43;;;;;;;9.15;8.25;;;;;;;23.63;76.16;101380.25;5033839;28;20203;-72
2023/08/16 07:40:11;;;;;;;11.60;8.40;;;;;;;23.67;76.51;101386.41;5033636;28;20246;-72
2023/08/16 07:42:38;;;;;;;11.65;8.57;;;;;;;23.70;76.21;101382.91;5031555;28;21910;-72
2023/08/16 07:45:06;;;;;;;10.00;8.10;;;;;;;23.73;75.77;101384.03;5037642;28;20214;-72
2023/08/16 07:47:33;;;;;;;9.60;7.97;;;;;;;23.74;75.73;101386.34;5038710;28;20219;-73
2023/08/16 07:49:59;;;;;;;9.85;7.95;;;;;;;23.77;75.64;101394.84;5033021;28;20304;-73
2023/08/16 07:52:26;;;;;;;10.85;8.32;;;;;;;23.77;75.56;101400.22;5034186;28;20200;-73
2023/08/16 07:54:52;;;;;;;9.80;7.93;;;;;;;23.76;75.66;101399.44;5034818;28;20556;-71
2023/08/16 07:57:19;;;;;;;9.88;8.35;;;;;;;23.77;75.78;101399.06;5030585;28;20223;-72
2023/08/16 07:59:45;;;;;;;8.80;7.85;;;;;;;23.79;75.70;101398.66;5035604;28;20274;-72
2023/08/16 08:02:13;;;;;;;9.38;8.15;;;;;;;23.85;75.44;101399.78;5035141;28;20211;-72
2023/08/16 08:04:39;;;;;;;8.65;7.85;;;;;;;23.95;75.08;101404.38;5038552;28;20577;-72
2023/08/16 08:07:06;;;;;;;10.30;7.78;;;;;;;24.07;74.20;101401.19;5036988;28;20223;-73
2023/08/16 08:09:32;;;;;;;9.48;7.30;;;;;;;24.19;74.30;101406.13;5032462;28;20227;-72
2023/08/16 08:12:00;;;;;;;8.50;7.50;;;;;;;24.36;74.01;101409.84;5034309;28;20207;-72
2023/08/16 08:14:26;;;;;;;11.07;7.68;;;;;;;24.54;74.02;101413.94;5033173;28;20195;-71
2023/08/16 08:16:53;;;;;;;8.50;7.60;;;;;;;24.75;73.82;101418.38;5035498;28;20708;-73
2023/08/16 08:19:21;;;;;;;7.95;7.15;;;;;;;24.94;70.65;101431.31;5032959;28;20223;-72
2023/08/16 08:21:48;;;;;;;9.90;7.68;;;;;;;25.06;71.40;101428.09;5034676;28;20589;-72
2023/08/16 08:24:15;;;;;;;7.43;6.70;;;;;;;25.19;71.07;101429.91;5031753;28;20212;-72
2023/08/16 08:26:43;;;;;;;7.50;6.53;;;;;;;25.35;70.39;101426.66;5032879;28;20229;-72
2023/08/16 08:29:09;;;;;;;8.40;6.50;;;;;;;25.47;70.08;101429.59;5030692;28;20261;-73
2023/08/16 08:31:35;;;;;;;7.80;6.13;;;;;;;25.60;69.06;101421.69;5034578;28;20207;-72
2023/08/16 08:34:02;;;;;;;7.22;6.47;;;;;;;25.71;68.28;101427.72;5036680;28;20211;-72
2023/08/16 08:36:29;;;;;;;8.30;6.40;;;;;;;25.81;67.76;101416.78;5030653;28;20231;-72
2023/08/16 08:38:56;;;;;;;7.20;6.50;;;;;;;25.91;67.63;101415.06;5038178;28;20574;-72
2023/08/16 08:41:23;;;;;;;8.07;6.45;;;;;;;25.95;67.07;101426.66;5036212;28;20230;-72
2023/08/16 08:43:50;;;;;;;6.57;5.95;;;;;;;25.97;66.29;101419.66;5034394;28;20325;-71
2023/08/16 08:46:17;;;;;;;8.25;6.28;;;;;;;25.97;66.17;101419.66;5034162;28;20297;-73
2023/08/16 08:48:44;;;;;;;7.18;5.68;;;;;;;25.99;66.08;101414.59;5032449;28;21420;-72
2023/08/16 08:51:10;;;;;;;7.97;6.03;;;;;;;26.03;66.93;101428.06;5031201;28;20220;-72
2023/08/16 08:53:38;;;;;;;6.78;6.07;;;;;;;26.06;67.66;101419.13;5034626;28;20290;-72
2023/08/16 08:56:09;;;;;;;6.72;6.13;;;;;;;26.06;64.28;101427.25;5036168;28;20211;-72
2023/08/16 08:58:36;;;;;;;6.60;5.80;;;;;;;26.08;67.66;101425.66;5029226;28;20199;-73
2023/08/16 09:01:03;;;;;;;6.28;5.68;;;;;;;26.09;65.02;101429.13;5033476;28;20223;-72
2023/08/16 09:03:31;;;;;;;6.03;5.43;;;;;;;26.11;64.73;101427.53;5032997;28;20203;-72
2023/08/16 09:06:00;;;;;;;5.82;5.22;;;;;;;26.16;63.44;101434.44;5034572;28;20665;-72
2023/08/16 09:08:26;;;;;;;7.43;6.45;;;;;;;26.20;66.49;101437.88;5029909;28;20223;-72
2023/08/16 09:10:54;;;;;;;7.10;6.40;;;;;;;26.24;66.26;101444.75;5032135;28;20233;-73
2023/08/16 09:13:21;;;;;;;6.78;6.13;;;;;;;26.27;65.15;101440.47;5031769;28;20208;-71
2023/08/16 09:15:47;;;;;;;7.10;6.40;;;;;;;26.35;66.32;101441.88;5033975;28;20402;-72
2023/08/16 09:18:16;;;;;;;6.47;5.82;;;;;;;26.42;66.42;101439.06;5034397;28;20208;-71
2023/08/16 09:20:44;;;;;;;6.57;5.50;;;;;;;26.48;63.25;101440.91;5034829;28;20222;-72
2023/08/16 09:23:13;;;;;;;9.35;6.18;;;;;;;26.52;64.79;101438.88;5034701;28;20639;-72
2023/08/16 09:25:39;;;;;;;5.93;5.38;;;;;;;26.54;61.28;101435.75;5033091;28;20231;-72
2023/08/16 09:28:11;;;;;;;5.97;5.38;;;;;;;26.63;65.34;101444.91;5031833;28;20747;-72
2023/08/16 09:30:37;;;;;;;6.47;5.38;;;;;;;26.67;59.97;101445.63;5027893;28;20763;-72
2023/08/16 09:33:04;;;;;;;6.85;5.55;;;;;;;26.80;62.73;101440.34;5034776;28;20681;-72
2023/08/16 09:35:31;;;;;;;6.03;5.43;;;;;;;26.96;63.44;101445.88;5034714;28;20199;-72
2023/08/16 09:37:58;;;;;;;6.15;5.55;;;;;;;27.14;63.78;101443.59;5033875;28;20570;-72
2023/08/16 09:40:25;;;;;;;7.22;5.35;;;;;;;27.35;63.15;101445.94;5033137;28;20235;-72
2023/08/16 09:42:52;;;;;;;5.28;4.78;;;;;;;27.49;59.70;101453.75;5034565;28;20303;-73
2023/08/16 09:45:28;;;;;;;5.38;4.88;;;;;;;27.54;58.34;101445.13;5032050;28;20231;-71
2023/08/16 09:47:54;;;;;;;6.10;5.50;;;;;;;27.57;58.62;101444.31;5032315;28;20218;-72
2023/08/16 09:50:22;;;;;;;5.93;5.32;;;;;;;27.60;59.15;101448.91;5032797;28;20238;-73
2023/08/16 09:52:48;;;;;;;6.47;5.20;;;;;;;27.61;59.75;101453.88;5033761;28;20207;-72
2023/08/16 09:55:24;;;;;;;5.53;5.03;;;;;;;27.63;59.25;101451.53;5035096;28;20214;-73
2023/08/16 09:57:50;;;;;;;5.80;5.18;;;;;;;27.61;58.67;101456.59;5035051;28;21401;-72
2023/08/16 10:00:17;;;;;;;6.30;5.70;;;;;;;27.62;59.13;101454.66;5031587;28;20228;-72
2023/08/16 10:02:48;;;;;;;5.93;5.30;;;;;;;27.55;57.96;101452.84;5031012;28;20628;-72
2023/08/16 10:05:15;;;;;;;7.60;6.38;;;;;;;27.52;59.73;101451.00;5032708;28;20218;-73
2023/08/16 10:07:42;;;;;;;7.70;5.13;;;;;;;27.42;58.90;101445.78;5035591;28;20389;-72
2023/08/16 10:10:10;;;;;;;5.88;5.28;;;;;;;27.40;58.57;101445.44;5037307;28;20254;-72
2023/08/16 10:12:37;;;;;;;5.43;4.93;;;;;;;27.31;58.58;101443.28;5031346;28;20227;-72
2023/08/16 10:15:04;;;;;;;5.38;4.88;;;;;;;27.27;57.94;101439.88;5038928;28;20684;-72
2023/08/16 10:17:33;;;;;;;6.13;5.13;;;;;;;27.25;58.36;101436.81;5033121;28;20199;-72
2023/08/16 10:20:05;;;;;;;5.60;5.07;;;;;;;27.20;58.79;101441.97;5034377;28;20771;-72
2023/08/16 10:22:37;;;;;;;6.93;5.95;;;;;;;27.16;58.31;101436.59;5036745;28;20200;-72
2023/08/16 10:25:10;;;;;;;6.78;5.50;;;;;;;27.18;59.47;101434.25;5033864;28;20215;-72
2023/08/16 10:27:39;;;;;;;5.75;5.20;;;;;;;27.20;59.48;101437.28;5036286;28;20223;-72
2023/08/16 10:30:09;;;;;;;5.95;5.22;;;;;;;27.25;57.67;101444.94;5039409;28;20247;-71
2023/08/16 10:32:40;;;;;;;6.30;5.22;;;;;;;27.30;56.69;101443.69;5036804;28;20212;-72
2023/08/16 10:35:10;;;;;;;5.53;4.95;;;;;;;27.39;58.12;101443.91;5032811;28;20199;-72
2023/08/16 10:37:37;;;;;;;6.20;5.70;;;;;;;27.44;58.49;101444.16;5031207;28;20202;-72
2023/08/16 10:40:04;;;;;;;6.50;5.90;;;;;;;27.50;57.50;101447.16;5036187;28;20370;-73
2023/08/16 10:42:30;;;;;;;6.38;5.78;;;;;;;27.54;57.32;101445.91;5038782;28;20629;-72
2023/08/16 10:44:57;;;;;;;9.57;6.38;;;;;;;27.56;58.09;101448.19;5037387;28;20203;-72
2023/08/16 10:47:30;;;;;;;7.13;6.03;;;;;;;27.61;58.58;101456.59;5038287;28;21049;-73
2023/08/16 10:49:56;;;;;;;6.60;5.80;;;;;;;27.58;57.76;101454.75;5038212;28;20231;-72
2023/08/16 10:52:28;;;;;;;5.38;4.85;;;;;;;27.57;55.60;101455.94;5035159;28;20310;-72
2023/08/16 10:54:55;;;;;;;5.97;5.15;;;;;;;27.59;56.79;101452.78;5036205;28;20238;-72
2023/08/16 10:57:24;;;;;;;6.25;5.68;;;;;;;27.65;57.91;101443.72;5034964;28;20682;-72
2023/08/16 11:00:03;;;;;;;5.32;4.82;;;;;;;27.67;55.96;101444.09;5037533;28;20320;-72
2023/08/16 11:02:31;;;;;;;5.88;5.32;;;;;;;27.69;57.54;101449.84;5031261;28;20689;-73
2023/08/16 11:04:58;;;;;;;6.78;5.20;;;;;;;27.71;57.11;101450.19;5038255;28;20593;-72
2023/08/16 11:07:25;;;;;;;5.78;5.22;;;;;;;27.70;57.27;101447.91;5035712;28;20216;-73
2023/08/16 11:09:53;;;;;;;5.47;4.88;;;;;;;27.71;57.28;101452.16;5035593;28;20223;-73
2023/08/16 11:12:19;;;;;;;5.68;4.72;;;;;;;27.69;56.05;101449.06;5034015;28;20214;-72
2023/08/16 11:14:46;;;;;;;4.97;4.32;;;;;;;27.64;57.35;101449.56;5034566;28;20199;-72
2023/08/16 11:17:14;;;;;;;5.32;4.82;;;;;;;27.65;57.63;101445.69;5037223;28;20226;-73
2023/08/16 11:19:42;;;;;;;5.95;4.57;;;;;;;27.64;56.40;101436.78;5034573;28;20837;-72
2023/08/16 11:22:09;;;;;;;5.97;4.85;;;;;;;27.62;55.64;101439.16;5036771;28;20225;-72
2023/08/16 11:24:36;;;;;;;6.18;5.57;;;;;;;27.62;55.94;101436.44;5034578;28;20487;-72